sensor_id;sensor_type;location;lat;lon;timestamp;P1;durP1;ratioP1;P2;durP2;ratioP2
47790;SDS011;33547;49.044;1.156;2023-03-11T00:00:24;13.35;;;11.98;;
47790;SDS011;33547;49.044;1.156;2023-03-11T00:02:52;13.73;;;12.25;;
47790;SDS011;33547;49.044;1.156;2023-03-11T00:05:20;15.27;;;10.95;;
47790;SDS011;33547;49.044;1.156;2023-03-11T00:07:53;12.10;;;10.35;;
47790;SDS011;33547;49.044;1.156;2023-03-11T00:10:23;11.77;;;10.00;;
47790;SDS011;33547;49.044;1.156;2023-03-11T00:12:53;11.73;;;10.02;;
47790;SDS011;33547;49.044;1.156;2023-03-11T00:15:19;13.15;;;10.88;;
47790;SDS011;33547;49.044;1.156;2023-03-11T00:17:46;10.80;;;9.65;;
47790;SDS011;33547;49.044;1.156;2023-03-11T00:20:17;12.13;;;10.65;;
47790;SDS011;33547;49.044;1.156;2023-03-11T00:22:49;14.73;;;10.63;;
47790;SDS011;33547;49.044;1.156;2023-03-11T00:25:15;11.70;;;10.50;;
47790;SDS011;33547;49.044;1.156;2023-03-11T00:27:42;12.45;;;10.98;;
47790;SDS011;33547;49.044;1.156;2023-03-11T00:30:09;12.25;;;11.02;;
47790;SDS011;33547;49.044;1.156;2023-03-11T00:32:36;14.05;;;12.02;;
47790;SDS011;33547;49.044;1.156;2023-03-11T00:35:02;18.45;;;14.13;;
47790;SDS011;33547;49.044;1.156;2023-03-11T00:37:28;16.75;;;13.00;;
47790;SDS011;33547;49.044;1.156;2023-03-11T00:39:53;15.52;;;11.63;;
47790;SDS011;33547;49.044;1.156;2023-03-11T00:42:19;17.15;;;12.13;;
47790;SDS011;33547;49.044;1.156;2023-03-11T00:44:45;19.90;;;13.20;;
47790;SDS011;33547;49.044;1.156;2023-03-11T00:47:10;14.07;;;11.40;;
47790;SDS011;33547;49.044;1.156;2023-03-11T00:49:36;18.38;;;13.35;;
47790;SDS011;33547;49.044;1.156;2023-03-11T00:52:03;14.13;;;11.73;;
47790;SDS011;33547;49.044;1.156;2023-03-11T00:54:29;31.63;;;24.05;;
47790;SDS011;33547;49.044;1.156;2023-03-11T00:56:55;15.23;;;12.70;;
47790;SDS011;33547;49.044;1.156;2023-03-11T00:59:20;15.43;;;12.32;;
47790;SDS011;33547;49.044;1.156;2023-03-11T01:01:46;18.35;;;13.82;;
47790;SDS011;33547;49.044;1.156;2023-03-11T01:04:12;13.60;;;11.07;;
47790;SDS011;33547;49.044;1.156;2023-03-11T01:06:38;14.18;;;12.65;;
47790;SDS011;33547;49.044;1.156;2023-03-11T01:09:04;12.30;;;10.45;;
47790;SDS011;33547;49.044;1.156;2023-03-11T01:11:29;16.23;;;12.15;;
47790;SDS011;33547;49.044;1.156;2023-03-11T01:13:55;14.18;;;12.55;;
47790;SDS011;33547;49.044;1.156;2023-03-11T01:16:21;14.25;;;11.18;;
47790;SDS011;33547;49.044;1.156;2023-03-11T01:18:46;16.27;;;11.05;;
47790;SDS011;33547;49.044;1.156;2023-03-11T01:21:12;11.32;;;10.23;;
47790;SDS011;33547;49.044;1.156;2023-03-11T01:23:39;11.27;;;10.25;;
47790;SDS011;33547;49.044;1.156;2023-03-11T01:26:05;11.68;;;10.43;;
47790;SDS011;33547;49.044;1.156;2023-03-11T01:28:30;11.90;;;10.75;;
47790;SDS011;33547;49.044;1.156;2023-03-11T01:30:56;12.95;;;10.93;;
47790;SDS011;33547;49.044;1.156;2023-03-11T01:33:22;19.33;;;14.98;;
47790;SDS011;33547;49.044;1.156;2023-03-11T01:35:47;15.43;;;13.07;;
47790;SDS011;33547;49.044;1.156;2023-03-11T01:38:13;13.35;;;11.57;;
47790;SDS011;33547;49.044;1.156;2023-03-11T01:40:44;12.48;;;11.27;;
47790;SDS011;33547;49.044;1.156;2023-03-11T01:48:49;18.77;;;11.10;;
47790;SDS011;33547;49.044;1.156;2023-03-11T01:51:18;13.55;;;11.13;;
47790;SDS011;33547;49.044;1.156;2023-03-11T01:53:48;13.25;;;11.00;;
47790;SDS011;33547;49.044;1.156;2023-03-11T01:56:15;12.30;;;11.00;;
47790;SDS011;33547;49.044;1.156;2023-03-11T01:58:41;12.98;;;11.55;;
47790;SDS011;33547;49.044;1.156;2023-03-11T02:01:10;11.98;;;10.77;;
47790;SDS011;33547;49.044;1.156;2023-03-11T02:03:38;12.35;;;10.95;;
47790;SDS011;33547;49.044;1.156;2023-03-11T02:06:07;11.68;;;10.35;;
47790;SDS011;33547;49.044;1.156;2023-03-11T02:08:35;11.48;;;9.93;;
47790;SDS011;33547;49.044;1.156;2023-03-11T02:11:02;12.63;;;10.38;;
47790;SDS011;33547;49.044;1.156;2023-03-11T02:13:30;11.65;;;10.45;;
47790;SDS011;33547;49.044;1.156;2023-03-11T02:15:59;11.85;;;10.63;;
47790;SDS011;33547;49.044;1.156;2023-03-11T02:18:26;12.55;;;10.52;;
47790;SDS011;33547;49.044;1.156;2023-03-11T02:21:02;11.82;;;9.90;;
47790;SDS011;33547;49.044;1.156;2023-03-11T02:29:01;10.77;;;9.63;;
47790;SDS011;33547;49.044;1.156;2023-03-11T02:31:29;10.88;;;9.07;;
47790;SDS011;33547;49.044;1.156;2023-03-11T02:33:55;10.77;;;9.68;;
47790;SDS011;33547;49.044;1.156;2023-03-11T02:36:34;11.18;;;9.80;;
47790;SDS011;33547;49.044;1.156;2023-03-11T02:39:01;11.02;;;9.93;;
47790;SDS011;33547;49.044;1.156;2023-03-11T02:41:27;15.65;;;9.55;;
47790;SDS011;33547;49.044;1.156;2023-03-11T02:43:55;12.65;;;8.88;;
47790;SDS011;33547;49.044;1.156;2023-03-11T02:46:21;10.57;;;9.55;;
47790;SDS011;33547;49.044;1.156;2023-03-11T02:48:47;11.63;;;9.30;;
47790;SDS011;33547;49.044;1.156;2023-03-11T02:51:13;11.90;;;9.05;;
47790;SDS011;33547;49.044;1.156;2023-03-11T02:53:46;11.25;;;9.30;;
47790;SDS011;33547;49.044;1.156;2023-03-11T02:56:15;12.98;;;10.13;;
47790;SDS011;33547;49.044;1.156;2023-03-11T02:58:41;10.80;;;9.77;;
47790;SDS011;33547;49.044;1.156;2023-03-11T03:01:06;10.10;;;9.10;;
47790;SDS011;33547;49.044;1.156;2023-03-11T03:03:32;10.68;;;9.57;;
47790;SDS011;33547;49.044;1.156;2023-03-11T03:05:58;10.60;;;8.95;;
47790;SDS011;33547;49.044;1.156;2023-03-11T03:08:23;10.73;;;8.95;;
47790;SDS011;33547;49.044;1.156;2023-03-11T03:10:49;12.85;;;10.23;;
47790;SDS011;33547;49.044;1.156;2023-03-11T03:13:14;12.25;;;9.38;;
47790;SDS011;33547;49.044;1.156;2023-03-11T03:15:40;11.90;;;9.52;;
47790;SDS011;33547;49.044;1.156;2023-03-11T03:18:05;13.23;;;9.25;;
47790;SDS011;33547;49.044;1.156;2023-03-11T03:20:31;11.48;;;10.27;;
47790;SDS011;33547;49.044;1.156;2023-03-11T03:22:57;10.35;;;9.30;;
47790;SDS011;33547;49.044;1.156;2023-03-11T03:25:22;10.60;;;9.40;;
47790;SDS011;33547;49.044;1.156;2023-03-11T03:27:48;10.35;;;9.25;;
47790;SDS011;33547;49.044;1.156;2023-03-11T03:30:14;10.15;;;9.15;;
47790;SDS011;33547;49.044;1.156;2023-03-11T03:32:40;10.32;;;9.30;;
47790;SDS011;33547;49.044;1.156;2023-03-11T03:35:06;9.90;;;8.88;;
47790;SDS011;33547;49.044;1.156;2023-03-11T03:37:33;12.20;;;10.35;;
47790;SDS011;33547;49.044;1.156;2023-03-11T03:40:01;12.88;;;9.77;;
47790;SDS011;33547;49.044;1.156;2023-03-11T03:42:31;9.77;;;8.70;;
47790;SDS011;33547;49.044;1.156;2023-03-11T03:44:58;10.88;;;9.07;;
47790;SDS011;33547;49.044;1.156;2023-03-11T03:47:23;12.38;;;9.25;;
47790;SDS011;33547;49.044;1.156;2023-03-11T03:49:49;10.82;;;9.25;;
47790;SDS011;33547;49.044;1.156;2023-03-11T03:52:15;11.38;;;9.40;;
47790;SDS011;33547;49.044;1.156;2023-03-11T03:54:40;10.88;;;9.75;;
47790;SDS011;33547;49.044;1.156;2023-03-11T03:57:06;15.07;;;9.77;;
47790;SDS011;33547;49.044;1.156;2023-03-11T03:59:32;14.65;;;11.18;;
47790;SDS011;33547;49.044;1.156;2023-03-11T04:01:57;11.05;;;9.57;;
47790;SDS011;33547;49.044;1.156;2023-03-11T04:04:23;11.27;;;9.23;;
47790;SDS011;33547;49.044;1.156;2023-03-11T04:06:49;11.20;;;9.82;;
47790;SDS011;33547;49.044;1.156;2023-03-11T04:09:14;12.43;;;9.88;;
47790;SDS011;33547;49.044;1.156;2023-03-11T04:11:40;12.07;;;8.48;;
47790;SDS011;33547;49.044;1.156;2023-03-11T04:14:06;10.80;;;8.07;;
47790;SDS011;33547;49.044;1.156;2023-03-11T04:16:31;11.18;;;8.43;;
47790;SDS011;33547;49.044;1.156;2023-03-11T04:18:57;11.15;;;8.02;;
47790;SDS011;33547;49.044;1.156;2023-03-11T04:21:23;10.60;;;8.13;;
47790;SDS011;33547;49.044;1.156;2023-03-11T04:23:48;9.82;;;7.38;;
47790;SDS011;33547;49.044;1.156;2023-03-11T04:26:14;8.45;;;7.53;;
47790;SDS011;33547;49.044;1.156;2023-03-11T04:28:40;9.40;;;7.97;;
47790;SDS011;33547;49.044;1.156;2023-03-11T04:31:06;8.85;;;7.93;;
47790;SDS011;33547;49.044;1.156;2023-03-11T04:33:31;11.18;;;7.93;;
47790;SDS011;33547;49.044;1.156;2023-03-11T04:35:57;10.15;;;6.88;;
47790;SDS011;33547;49.044;1.156;2023-03-11T04:38:23;8.35;;;5.88;;
47790;SDS011;33547;49.044;1.156;2023-03-11T04:40:49;7.18;;;6.03;;
47790;SDS011;33547;49.044;1.156;2023-03-11T04:43:15;6.90;;;6.15;;
47790;SDS011;33547;49.044;1.156;2023-03-11T04:45:41;7.85;;;5.45;;
47790;SDS011;33547;49.044;1.156;2023-03-11T04:48:06;7.70;;;5.60;;
47790;SDS011;33547;49.044;1.156;2023-03-11T04:50:32;6.53;;;5.43;;
47790;SDS011;33547;49.044;1.156;2023-03-11T04:52:58;11.52;;;5.78;;
47790;SDS011;33547;49.044;1.156;2023-03-11T04:55:25;6.90;;;5.75;;
47790;SDS011;33547;49.044;1.156;2023-03-11T04:57:51;6.70;;;5.53;;
47790;SDS011;33547;49.044;1.156;2023-03-11T05:00:17;6.45;;;5.20;;
47790;SDS011;33547;49.044;1.156;2023-03-11T05:02:46;7.00;;;4.82;;
47790;SDS011;33547;49.044;1.156;2023-03-11T05:05:12;5.45;;;4.95;;
47790;SDS011;33547;49.044;1.156;2023-03-11T05:07:38;6.03;;;4.68;;
47790;SDS011;33547;49.044;1.156;2023-03-11T05:10:04;4.85;;;4.38;;
47790;SDS011;33547;49.044;1.156;2023-03-11T05:12:30;7.68;;;4.72;;
47790;SDS011;33547;49.044;1.156;2023-03-11T05:14:56;7.15;;;4.72;;
47790;SDS011;33547;49.044;1.156;2023-03-11T05:17:21;5.63;;;5.03;;
47790;SDS011;33547;49.044;1.156;2023-03-11T05:19:48;5.82;;;4.95;;
47790;SDS011;33547;49.044;1.156;2023-03-11T05:22:15;8.60;;;5.20;;
47790;SDS011;33547;49.044;1.156;2023-03-11T05:24:40;7.88;;;4.97;;
47790;SDS011;33547;49.044;1.156;2023-03-11T05:27:06;6.75;;;5.28;;
47790;SDS011;33547;49.044;1.156;2023-03-11T05:29:32;6.70;;;5.00;;
47790;SDS011;33547;49.044;1.156;2023-03-11T05:31:57;6.15;;;5.28;;
47790;SDS011;33547;49.044;1.156;2023-03-11T05:34:23;6.00;;;4.50;;
47790;SDS011;33547;49.044;1.156;2023-03-11T05:36:48;5.93;;;5.32;;
47790;SDS011;33547;49.044;1.156;2023-03-11T05:39:14;8.02;;;5.13;;
47790;SDS011;33547;49.044;1.156;2023-03-11T05:41:40;6.70;;;5.65;;
47790;SDS011;33547;49.044;1.156;2023-03-11T05:44:06;9.27;;;6.22;;
47790;SDS011;33547;49.044;1.156;2023-03-11T05:46:31;8.07;;;5.63;;
47790;SDS011;33547;49.044;1.156;2023-03-11T05:49:00;6.28;;;5.65;;
47790;SDS011;33547;49.044;1.156;2023-03-11T05:51:26;7.18;;;6.30;;
47790;SDS011;33547;49.044;1.156;2023-03-11T05:53:51;9.05;;;5.97;;
47790;SDS011;33547;49.044;1.156;2023-03-11T05:56:18;9.15;;;6.35;;
47790;SDS011;33547;49.044;1.156;2023-03-11T05:58:45;8.13;;;6.15;;
47790;SDS011;33547;49.044;1.156;2023-03-11T06:01:12;8.02;;;5.60;;
47790;SDS011;33547;49.044;1.156;2023-03-11T06:03:40;9.65;;;6.05;;
47790;SDS011;33547;49.044;1.156;2023-03-11T06:06:06;9.73;;;7.13;;
47790;SDS011;33547;49.044;1.156;2023-03-11T06:08:33;9.75;;;7.97;;
47790;SDS011;33547;49.044;1.156;2023-03-11T06:11:00;10.43;;;8.52;;
47790;SDS011;33547;49.044;1.156;2023-03-11T06:13:26;9.70;;;8.70;;
47790;SDS011;33547;49.044;1.156;2023-03-11T06:15:52;11.40;;;9.40;;
47790;SDS011;33547;49.044;1.156;2023-03-11T06:18:17;11.20;;;10.10;;
47790;SDS011;33547;49.044;1.156;2023-03-11T06:20:43;11.27;;;10.13;;
47790;SDS011;33547;49.044;1.156;2023-03-11T06:23:08;12.18;;;10.05;;
47790;SDS011;33547;49.044;1.156;2023-03-11T06:25:34;14.15;;;11.73;;
47790;SDS011;33547;49.044;1.156;2023-03-11T06:28:00;13.07;;;11.57;;
47790;SDS011;33547;49.044;1.156;2023-03-11T06:30:25;13.10;;;10.90;;
47790;SDS011;33547;49.044;1.156;2023-03-11T06:32:51;14.25;;;11.85;;
47790;SDS011;33547;49.044;1.156;2023-03-11T06:35:16;12.45;;;10.65;;
47790;SDS011;33547;49.044;1.156;2023-03-11T06:37:42;11.90;;;10.30;;
47790;SDS011;33547;49.044;1.156;2023-03-11T06:40:08;13.45;;;9.75;;
47790;SDS011;33547;49.044;1.156;2023-03-11T06:42:35;11.43;;;9.55;;
47790;SDS011;33547;49.044;1.156;2023-03-11T06:45:01;11.18;;;9.20;;
47790;SDS011;33547;49.044;1.156;2023-03-11T06:47:27;12.45;;;9.85;;
47790;SDS011;33547;49.044;1.156;2023-03-11T06:49:52;12.32;;;10.07;;
47790;SDS011;33547;49.044;1.156;2023-03-11T06:52:18;10.90;;;9.60;;
47790;SDS011;33547;49.044;1.156;2023-03-11T06:54:44;11.25;;;9.57;;
47790;SDS011;33547;49.044;1.156;2023-03-11T06:57:10;13.05;;;9.95;;
47790;SDS011;33547;49.044;1.156;2023-03-11T06:59:36;12.18;;;9.65;;
47790;SDS011;33547;49.044;1.156;2023-03-11T07:02:03;9.70;;;8.80;;
47790;SDS011;33547;49.044;1.156;2023-03-11T07:04:30;11.65;;;9.60;;
47790;SDS011;33547;49.044;1.156;2023-03-11T07:06:56;11.40;;;9.73;;
47790;SDS011;33547;49.044;1.156;2023-03-11T07:09:22;11.20;;;8.30;;
47790;SDS011;33547;49.044;1.156;2023-03-11T07:11:49;10.88;;;8.30;;
47790;SDS011;33547;49.044;1.156;2023-03-11T07:14:15;9.52;;;7.93;;
47790;SDS011;33547;49.044;1.156;2023-03-11T07:16:42;14.10;;;9.15;;
47790;SDS011;33547;49.044;1.156;2023-03-11T07:19:09;9.88;;;7.97;;
47790;SDS011;33547;49.044;1.156;2023-03-11T07:21:35;10.15;;;7.55;;
47790;SDS011;33547;49.044;1.156;2023-03-11T07:24:01;9.40;;;7.85;;
47790;SDS011;33547;49.044;1.156;2023-03-11T07:26:28;10.13;;;7.50;;
47790;SDS011;33547;49.044;1.156;2023-03-11T07:28:55;9.38;;;7.90;;
47790;SDS011;33547;49.044;1.156;2023-03-11T07:31:23;9.90;;;7.80;;
47790;SDS011;33547;49.044;1.156;2023-03-11T07:33:50;9.65;;;7.30;;
47790;SDS011;33547;49.044;1.156;2023-03-11T07:36:18;13.38;;;7.45;;
47790;SDS011;33547;49.044;1.156;2023-03-11T07:38:45;8.20;;;6.88;;
47790;SDS011;33547;49.044;1.156;2023-03-11T07:41:11;7.28;;;5.63;;
47790;SDS011;33547;49.044;1.156;2023-03-11T07:43:38;9.43;;;5.97;;
47790;SDS011;33547;49.044;1.156;2023-03-11T07:46:09;8.65;;;6.10;;
47790;SDS011;33547;49.044;1.156;2023-03-11T07:48:42;9.40;;;6.78;;
47790;SDS011;33547;49.044;1.156;2023-03-11T07:51:10;7.90;;;5.90;;
47790;SDS011;33547;49.044;1.156;2023-03-11T07:53:40;6.63;;;5.45;;
47790;SDS011;33547;49.044;1.156;2023-03-11T07:56:06;8.07;;;5.75;;
47790;SDS011;33547;49.044;1.156;2023-03-11T07:58:33;7.43;;;5.30;;
47790;SDS011;33547;49.044;1.156;2023-03-11T08:01:41;7.10;;;5.38;;
47790;SDS011;33547;49.044;1.156;2023-03-11T08:03:50;6.22;;;4.75;;
47790;SDS011;33547;49.044;1.156;2023-03-11T08:06:21;5.15;;;4.10;;
47790;SDS011;33547;49.044;1.156;2023-03-11T08:08:49;6.18;;;4.13;;
47790;SDS011;33547;49.044;1.156;2023-03-11T08:11:16;5.93;;;4.53;;
47790;SDS011;33547;49.044;1.156;2023-03-11T08:13:43;4.60;;;3.92;;
47790;SDS011;33547;49.044;1.156;2023-03-11T08:16:11;4.25;;;3.67;;
47790;SDS011;33547;49.044;1.156;2023-03-11T08:18:38;4.85;;;4.43;;
47790;SDS011;33547;49.044;1.156;2023-03-11T08:21:08;6.80;;;4.65;;
47790;SDS011;33547;49.044;1.156;2023-03-11T08:23:36;5.28;;;3.85;;
47790;SDS011;33547;49.044;1.156;2023-03-11T08:26:12;8.30;;;4.07;;
47790;SDS011;33547;49.044;1.156;2023-03-11T08:28:43;4.93;;;3.55;;
47790;SDS011;33547;49.044;1.156;2023-03-11T08:31:13;6.30;;;4.15;;
47790;SDS011;33547;49.044;1.156;2023-03-11T08:33:43;4.18;;;3.13;;
47790;SDS011;33547;49.044;1.156;2023-03-11T08:36:10;6.90;;;3.42;;
47790;SDS011;33547;49.044;1.156;2023-03-11T08:38:36;4.40;;;3.55;;
47790;SDS011;33547;49.044;1.156;2023-03-11T08:41:03;4.72;;;3.72;;
47790;SDS011;33547;49.044;1.156;2023-03-11T08:43:29;7.38;;;3.65;;
47790;SDS011;33547;49.044;1.156;2023-03-11T08:45:54;6.82;;;3.95;;
47790;SDS011;33547;49.044;1.156;2023-03-11T08:48:20;5.13;;;3.60;;
47790;SDS011;33547;49.044;1.156;2023-03-11T08:50:47;5.30;;;2.90;;
47790;SDS011;33547;49.044;1.156;2023-03-11T08:53:13;5.63;;;3.63;;
47790;SDS011;33547;49.044;1.156;2023-03-11T08:55:38;4.63;;;3.25;;
47790;SDS011;33547;49.044;1.156;2023-03-11T08:58:04;4.47;;;2.85;;
47790;SDS011;33547;49.044;1.156;2023-03-11T09:00:30;6.65;;;3.40;;
47790;SDS011;33547;49.044;1.156;2023-03-11T09:02:55;3.58;;;3.28;;
47790;SDS011;33547;49.044;1.156;2023-03-11T09:05:21;4.93;;;3.45;;
47790;SDS011;33547;49.044;1.156;2023-03-11T09:07:47;6.15;;;3.03;;
47790;SDS011;33547;49.044;1.156;2023-03-11T09:10:13;7.40;;;3.50;;
47790;SDS011;33547;49.044;1.156;2023-03-11T09:12:40;3.70;;;3.20;;
47790;SDS011;33547;49.044;1.156;2023-03-11T09:15:05;7.55;;;3.40;;
47790;SDS011;33547;49.044;1.156;2023-03-11T09:17:32;6.47;;;3.30;;
47790;SDS011;33547;49.044;1.156;2023-03-11T09:19:58;5.03;;;3.30;;
47790;SDS011;33547;49.044;1.156;2023-03-11T09:22:23;5.97;;;3.17;;
47790;SDS011;33547;49.044;1.156;2023-03-11T09:24:49;4.97;;;2.92;;
47790;SDS011;33547;49.044;1.156;2023-03-11T09:27:14;4.57;;;2.85;;
47790;SDS011;33547;49.044;1.156;2023-03-11T09:29:40;4.07;;;3.00;;
47790;SDS011;33547;49.044;1.156;2023-03-11T09:32:06;10.48;;;3.35;;
47790;SDS011;33547;49.044;1.156;2023-03-11T09:34:33;4.03;;;2.90;;
47790;SDS011;33547;49.044;1.156;2023-03-11T09:36:59;7.05;;;3.10;;
47790;SDS011;33547;49.044;1.156;2023-03-11T09:39:25;6.45;;;4.05;;
47790;SDS011;33547;49.044;1.156;2023-03-11T09:41:52;5.40;;;2.50;;
47790;SDS011;33547;49.044;1.156;2023-03-11T09:52:42;8.13;;;2.80;;
47790;SDS011;33547;49.044;1.156;2023-03-11T09:55:36;5.90;;;2.92;;
47790;SDS011;33547;49.044;1.156;2023-03-11T10:01:17;3.83;;;2.47;;
47790;SDS011;33547;49.044;1.156;2023-03-11T10:03:54;4.20;;;2.22;;
47790;SDS011;33547;49.044;1.156;2023-03-11T10:06:26;4.28;;;2.67;;
47790;SDS011;33547;49.044;1.156;2023-03-11T10:09:20;4.45;;;3.00;;
47790;SDS011;33547;49.044;1.156;2023-03-11T10:11:59;4.57;;;2.97;;
47790;SDS011;33547;49.044;1.156;2023-03-11T10:17:11;5.75;;;3.35;;
47790;SDS011;33547;49.044;1.156;2023-03-11T10:22:41;5.40;;;3.00;;
47790;SDS011;33547;49.044;1.156;2023-03-11T10:25:25;4.70;;;3.78;;
47790;SDS011;33547;49.044;1.156;2023-03-11T10:28:07;4.43;;;2.90;;
47790;SDS011;33547;49.044;1.156;2023-03-11T10:30:47;5.97;;;3.40;;
47790;SDS011;33547;49.044;1.156;2023-03-11T10:36:03;3.53;;;2.22;;
47790;SDS011;33547;49.044;1.156;2023-03-11T10:38:41;4.38;;;3.22;;
47790;SDS011;33547;49.044;1.156;2023-03-11T10:41:18;4.63;;;2.60;;
47790;SDS011;33547;49.044;1.156;2023-03-11T10:43:51;5.53;;;2.83;;
47790;SDS011;33547;49.044;1.156;2023-03-11T10:46:38;3.55;;;2.50;;
47790;SDS011;33547;49.044;1.156;2023-03-11T10:49:04;2.97;;;2.70;;
47790;SDS011;33547;49.044;1.156;2023-03-11T10:51:37;6.80;;;3.90;;
47790;SDS011;33547;49.044;1.156;2023-03-11T10:54:03;5.70;;;3.50;;
47790;SDS011;33547;49.044;1.156;2023-03-11T10:56:30;6.22;;;3.08;;
47790;SDS011;33547;49.044;1.156;2023-03-11T10:58:58;3.90;;;2.90;;
47790;SDS011;33547;49.044;1.156;2023-03-11T11:01:25;5.70;;;3.15;;
47790;SDS011;33547;49.044;1.156;2023-03-11T11:03:52;4.40;;;3.33;;
47790;SDS011;33547;49.044;1.156;2023-03-11T11:11:30;3.72;;;2.90;;
47790;SDS011;33547;49.044;1.156;2023-03-11T11:13:57;4.72;;;3.85;;
47790;SDS011;33547;49.044;1.156;2023-03-11T11:16:24;4.28;;;2.53;;
47790;SDS011;33547;49.044;1.156;2023-03-11T11:18:53;6.38;;;3.95;;
47790;SDS011;33547;49.044;1.156;2023-03-11T11:21:32;3.87;;;2.90;;
47790;SDS011;33547;49.044;1.156;2023-03-11T11:24:22;4.38;;;3.42;;
47790;SDS011;33547;49.044;1.156;2023-03-11T11:29:46;3.28;;;2.60;;
47790;SDS011;33547;49.044;1.156;2023-03-11T11:32:27;3.65;;;2.83;;
47790;SDS011;33547;49.044;1.156;2023-03-11T11:34:59;3.97;;;3.00;;
47790;SDS011;33547;49.044;1.156;2023-03-11T11:37:30;6.10;;;4.00;;
47790;SDS011;33547;49.044;1.156;2023-03-11T11:40:16;4.70;;;2.92;;
47790;SDS011;33547;49.044;1.156;2023-03-11T11:42:51;4.53;;;3.80;;
47790;SDS011;33547;49.044;1.156;2023-03-11T11:48:00;4.82;;;2.35;;
47790;SDS011;33547;49.044;1.156;2023-03-11T11:50:51;3.17;;;2.80;;
47790;SDS011;33547;49.044;1.156;2023-03-11T11:53:48;3.42;;;2.80;;
47790;SDS011;33547;49.044;1.156;2023-03-11T11:56:18;4.63;;;2.88;;
47790;SDS011;33547;49.044;1.156;2023-03-11T11:58:48;3.67;;;2.92;;
47790;SDS011;33547;49.044;1.156;2023-03-11T12:01:34;4.93;;;3.22;;
47790;SDS011;33547;49.044;1.156;2023-03-11T12:04:15;7.05;;;3.40;;
47790;SDS011;33547;49.044;1.156;2023-03-11T12:09:32;3.03;;;2.63;;
47790;SDS011;33547;49.044;1.156;2023-03-11T12:14:38;3.67;;;2.67;;
47790;SDS011;33547;49.044;1.156;2023-03-11T12:17:07;3.28;;;2.58;;
47790;SDS011;33547;49.044;1.156;2023-03-11T12:27:24;3.60;;;2.90;;
47790;SDS011;33547;49.044;1.156;2023-03-11T12:29:57;4.93;;;3.05;;
47790;SDS011;33547;49.044;1.156;2023-03-11T12:32:33;4.13;;;3.17;;
47790;SDS011;33547;49.044;1.156;2023-03-11T12:38:03;4.00;;;3.10;;
47790;SDS011;33547;49.044;1.156;2023-03-11T12:43:25;5.10;;;3.35;;
47790;SDS011;33547;49.044;1.156;2023-03-11T12:45:55;7.55;;;3.25;;
47790;SDS011;33547;49.044;1.156;2023-03-11T12:50:54;4.32;;;3.30;;
47790;SDS011;33547;49.044;1.156;2023-03-11T12:53:40;4.10;;;3.53;;
47790;SDS011;33547;49.044;1.156;2023-03-11T12:56:13;3.33;;;3.03;;
47790;SDS011;33547;49.044;1.156;2023-03-11T12:58:55;4.75;;;3.08;;
47790;SDS011;33547;49.044;1.156;2023-03-11T13:01:52;3.35;;;3.05;;
47790;SDS011;33547;49.044;1.156;2023-03-11T13:09:43;3.72;;;3.20;;
47790;SDS011;33547;49.044;1.156;2023-03-11T13:20:44;3.17;;;2.90;;
47790;SDS011;33547;49.044;1.156;2023-03-11T13:25:39;3.42;;;2.63;;
47790;SDS011;33547;49.044;1.156;2023-03-11T13:33:53;4.85;;;3.50;;
47790;SDS011;33547;49.044;1.156;2023-03-11T13:41:53;4.03;;;3.63;;
47790;SDS011;33547;49.044;1.156;2023-03-11T13:46:46;4.38;;;3.75;;
47790;SDS011;33547;49.044;1.156;2023-03-11T13:51:54;3.80;;;3.40;;
47790;SDS011;33547;49.044;1.156;2023-03-11T13:56:55;3.83;;;2.97;;
47790;SDS011;33547;49.044;1.156;2023-03-11T14:01:58;3.67;;;3.33;;
47790;SDS011;33547;49.044;1.156;2023-03-11T14:04:28;3.92;;;3.55;;
47790;SDS011;33547;49.044;1.156;2023-03-11T14:06:55;4.13;;;3.65;;
47790;SDS011;33547;49.044;1.156;2023-03-11T14:09:22;3.97;;;3.55;;
47790;SDS011;33547;49.044;1.156;2023-03-11T14:11:51;3.97;;;3.67;;
47790;SDS011;33547;49.044;1.156;2023-03-11T14:15:04;3.75;;;3.30;;
47790;SDS011;33547;49.044;1.156;2023-03-11T14:17:10;3.42;;;3.08;;
47790;SDS011;33547;49.044;1.156;2023-03-11T14:19:38;4.18;;;3.22;;
47790;SDS011;33547;49.044;1.156;2023-03-11T14:22:06;4.07;;;3.45;;
47790;SDS011;33547;49.044;1.156;2023-03-11T14:24:33;4.07;;;3.38;;
47790;SDS011;33547;49.044;1.156;2023-03-11T14:27:00;3.92;;;2.88;;
47790;SDS011;33547;49.044;1.156;2023-03-11T14:29:32;3.53;;;3.22;;
47790;SDS011;33547;49.044;1.156;2023-03-11T14:34:55;3.55;;;3.10;;
47790;SDS011;33547;49.044;1.156;2023-03-11T14:37:31;5.50;;;3.67;;
47790;SDS011;33547;49.044;1.156;2023-03-11T14:40:02;3.45;;;3.13;;
47790;SDS011;33547;49.044;1.156;2023-03-11T14:42:38;3.85;;;3.35;;
47790;SDS011;33547;49.044;1.156;2023-03-11T14:45:15;3.75;;;3.13;;
47790;SDS011;33547;49.044;1.156;2023-03-11T14:47:43;4.38;;;3.20;;
47790;SDS011;33547;49.044;1.156;2023-03-11T14:50:15;3.50;;;2.65;;
47790;SDS011;33547;49.044;1.156;2023-03-11T14:53:12;3.97;;;3.25;;
47790;SDS011;33547;49.044;1.156;2023-03-11T14:55:57;3.72;;;3.40;;
47790;SDS011;33547;49.044;1.156;2023-03-11T15:01:12;3.67;;;3.33;;
47790;SDS011;33547;49.044;1.156;2023-03-11T15:06:37;3.90;;;2.90;;
47790;SDS011;33547;49.044;1.156;2023-03-11T15:09:07;3.30;;;3.00;;
47790;SDS011;33547;49.044;1.156;2023-03-11T15:11:46;4.80;;;3.60;;
47790;SDS011;33547;49.044;1.156;2023-03-11T15:14:23;4.50;;;3.42;;
47790;SDS011;33547;49.044;1.156;2023-03-11T15:16:51;3.95;;;3.65;;
47790;SDS011;33547;49.044;1.156;2023-03-11T15:21:53;3.90;;;3.53;;
47790;SDS011;33547;49.044;1.156;2023-03-11T15:24:24;3.60;;;3.33;;
47790;SDS011;33547;49.044;1.156;2023-03-11T15:27:04;3.95;;;3.25;;
47790;SDS011;33547;49.044;1.156;2023-03-11T15:29:32;3.80;;;3.50;;
47790;SDS011;33547;49.044;1.156;2023-03-11T15:31:59;3.97;;;3.60;;
47790;SDS011;33547;49.044;1.156;2023-03-11T15:34:45;3.75;;;3.45;;
47790;SDS011;33547;49.044;1.156;2023-03-11T15:37:28;4.93;;;3.75;;
47790;SDS011;33547;49.044;1.156;2023-03-11T15:40:07;5.47;;;4.18;;
47790;SDS011;33547;49.044;1.156;2023-03-11T15:42:35;5.43;;;3.80;;
47790;SDS011;33547;49.044;1.156;2023-03-11T15:47:36;5.67;;;4.20;;
47790;SDS011;33547;49.044;1.156;2023-03-11T15:50:11;4.43;;;4.05;;
47790;SDS011;33547;49.044;1.156;2023-03-11T15:52:39;4.55;;;3.80;;
47790;SDS011;33547;49.044;1.156;2023-03-11T15:55:05;3.85;;;3.45;;
47790;SDS011;33547;49.044;1.156;2023-03-11T15:57:31;4.78;;;3.90;;
47790;SDS011;33547;49.044;1.156;2023-03-11T15:59:57;5.22;;;4.03;;
47790;SDS011;33547;49.044;1.156;2023-03-11T16:02:25;4.95;;;4.45;;
47790;SDS011;33547;49.044;1.156;2023-03-11T16:04:53;4.75;;;4.32;;
47790;SDS011;33547;49.044;1.156;2023-03-11T16:07:19;7.50;;;4.70;;
47790;SDS011;33547;49.044;1.156;2023-03-11T16:09:45;6.57;;;5.10;;
47790;SDS011;33547;49.044;1.156;2023-03-11T16:12:14;6.00;;;5.22;;
47790;SDS011;33547;49.044;1.156;2023-03-11T16:14:45;8.68;;;6.07;;
47790;SDS011;33547;49.044;1.156;2023-03-11T16:17:12;5.95;;;5.22;;
47790;SDS011;33547;49.044;1.156;2023-03-11T16:19:41;7.15;;;5.80;;
47790;SDS011;33547;49.044;1.156;2023-03-11T16:22:17;6.55;;;5.85;;
47790;SDS011;33547;49.044;1.156;2023-03-11T16:24:51;7.55;;;5.82;;
47790;SDS011;33547;49.044;1.156;2023-03-11T16:27:18;6.50;;;5.78;;
47790;SDS011;33547;49.044;1.156;2023-03-11T16:29:44;7.68;;;6.85;;
47790;SDS011;33547;49.044;1.156;2023-03-11T16:32:10;8.00;;;6.88;;
47790;SDS011;33547;49.044;1.156;2023-03-11T16:34:36;6.45;;;5.85;;
47790;SDS011;33547;49.044;1.156;2023-03-11T16:37:03;7.38;;;6.63;;
47790;SDS011;33547;49.044;1.156;2023-03-11T16:39:29;8.43;;;7.35;;
47790;SDS011;33547;49.044;1.156;2023-03-11T16:41:55;10.35;;;7.60;;
47790;SDS011;33547;49.044;1.156;2023-03-11T16:44:21;7.70;;;6.90;;